sensor_id;sensor_type;location;lat;lon;timestamp;temperature;humidity
70708;SHT30;58277;47.316;18.908;2022-11-20T00:02:01;2.21;81.52
70708;SHT30;58277;47.316;18.908;2022-11-20T00:04:23;2.29;81.46
70708;SHT30;58277;47.316;18.908;2022-11-20T00:06:46;2.41;81.38
70708;SHT30;58277;47.316;18.908;2022-11-20T00:09:09;2.40;81.10
70708;SHT30;58277;47.316;18.908;2022-11-20T00:11:32;2.44;80.47
70708;SHT30;58277;47.316;18.908;2022-11-20T00:13:57;2.38;80.82
70708;SHT30;58277;47.316;18.908;2022-11-20T00:16:22;2.29;80.86
70708;SHT30;58277;47.316;18.908;2022-11-20T00:18:45;2.33;80.78
70708;SHT30;58277;47.316;18.908;2022-11-20T00:21:12;2.37;80.36
70708;SHT30;58277;47.316;18.908;2022-11-20T00:23:35;2.37;80.37
70708;SHT30;58277;47.316;18.908;2022-11-20T00:26:04;2.31;80.68
70708;SHT30;58277;47.316;18.908;2022-11-20T00:28:27;2.41;80.46
70708;SHT30;58277;47.316;18.908;2022-11-20T00:30:50;2.38;80.50
70708;SHT30;58277;47.316;18.908;2022-11-20T00:33:13;2.40;80.56
70708;SHT30;58277;47.316;18.908;2022-11-20T00:35:35;2.44;80.56
70708;SHT30;58277;47.316;18.908;2022-11-20T00:37:58;2.40;80.63
70708;SHT30;58277;47.316;18.908;2022-11-20T00:40:21;2.40;80.34
70708;SHT30;58277;47.316;18.908;2022-11-20T00:42:43;2.36;80.69
70708;SHT30;58277;47.316;18.908;2022-11-20T00:45:06;2.36;80.76
70708;SHT30;58277;47.316;18.908;2022-11-20T00:47:29;2.30;81.11
70708;SHT30;58277;47.316;18.908;2022-11-20T00:49:51;2.26;81.12
70708;SHT30;58277;47.316;18.908;2022-11-20T00:52:14;2.27;81.09
70708;SHT30;58277;47.316;18.908;2022-11-20T00:54:37;2.34;80.99
70708;SHT30;58277;47.316;18.908;2022-11-20T00:57:00;2.42;80.49
70708;SHT30;58277;47.316;18.908;2022-11-20T00:59:22;2.31;80.38
70708;SHT30;58277;47.316;18.908;2022-11-20T01:01:45;2.29;80.71
70708;SHT30;58277;47.316;18.908;2022-11-20T01:04:08;2.30;80.77
70708;SHT30;58277;47.316;18.908;2022-11-20T01:06:36;2.27;81.13
70708;SHT30;58277;47.316;18.908;2022-11-20T01:09:02;2.34;81.39
70708;SHT30;58277;47.316;18.908;2022-11-20T01:11:37;2.41;80.76
70708;SHT30;58277;47.316;18.908;2022-11-20T01:14:01;2.47;80.60
70708;SHT30;58277;47.316;18.908;2022-11-20T01:16:33;2.50;80.30
70708;SHT30;58277;47.316;18.908;2022-11-20T01:18:58;2.42;80.60
70708;SHT30;58277;47.316;18.908;2022-11-20T01:21:23;2.48;80.31
70708;SHT30;58277;47.316;18.908;2022-11-20T01:23:47;2.37;80.21
70708;SHT30;58277;47.316;18.908;2022-11-20T01:26:13;2.45;80.30
70708;SHT30;58277;47.316;18.908;2022-11-20T01:28:36;2.44;79.75
70708;SHT30;58277;47.316;18.908;2022-11-20T01:30:59;2.37;79.65
70708;SHT30;58277;47.316;18.908;2022-11-20T01:33:22;2.45;79.80
70708;SHT30;58277;47.316;18.908;2022-11-20T01:35:47;2.51;79.16
70708;SHT30;58277;47.316;18.908;2022-11-20T01:38:10;2.47;79.49
70708;SHT30;58277;47.316;18.908;2022-11-20T01:40:32;2.36;79.69
70708;SHT30;58277;47.316;18.908;2022-11-20T01:43:12;2.40;79.74
70708;SHT30;58277;47.316;18.908;2022-11-20T01:46:13;2.47;79.47
70708;SHT30;58277;47.316;18.908;2022-11-20T01:48:46;2.44;79.86
70708;SHT30;58277;47.316;18.908;2022-11-20T01:51:19;2.42;79.88
70708;SHT30;58277;47.316;18.908;2022-11-20T01:53:43;2.44;79.81
70708;SHT30;58277;47.316;18.908;2022-11-20T01:56:10;2.33;79.79
70708;SHT30;58277;47.316;18.908;2022-11-20T01:58:35;2.31;80.19
70708;SHT30;58277;47.316;18.908;2022-11-20T02:01:01;2.27;80.46
70708;SHT30;58277;47.316;18.908;2022-11-20T02:03:23;2.33;81.14
70708;SHT30;58277;47.316;18.908;2022-11-20T02:05:55;2.50;80.72
70708;SHT30;58277;47.316;18.908;2022-11-20T02:08:20;2.50;80.34
70708;SHT30;58277;47.316;18.908;2022-11-20T02:10:44;2.51;80.49
70708;SHT30;58277;47.316;18.908;2022-11-20T02:13:06;2.57;80.34
70708;SHT30;58277;47.316;18.908;2022-11-20T02:15:48;2.50;80.95
70708;SHT30;58277;47.316;18.908;2022-11-20T02:18:14;2.58;81.03
70708;SHT30;58277;47.316;18.908;2022-11-20T02:20:38;2.58;80.83
70708;SHT30;58277;47.316;18.908;2022-11-20T02:23:14;2.60;81.40
70708;SHT30;58277;47.316;18.908;2022-11-20T02:25:40;2.62;81.28
70708;SHT30;58277;47.316;18.908;2022-11-20T02:28:04;2.61;81.58
70708;SHT30;58277;47.316;18.908;2022-11-20T02:30:27;2.65;81.54
70708;SHT30;58277;47.316;18.908;2022-11-20T02:32:50;2.65;81.64
70708;SHT30;58277;47.316;18.908;2022-11-20T02:37:45;2.50;82.42
70708;SHT30;58277;47.316;18.908;2022-11-20T02:40:09;2.54;82.59
70708;SHT30;58277;47.316;18.908;2022-11-20T02:42:32;2.60;82.62
70708;SHT30;58277;47.316;18.908;2022-11-20T02:44:55;2.62;82.57
70708;SHT30;58277;47.316;18.908;2022-11-20T02:47:17;2.57;82.93
70708;SHT30;58277;47.316;18.908;2022-11-20T02:49:40;2.57;83.04
70708;SHT30;58277;47.316;18.908;2022-11-20T02:52:03;2.51;83.36
70708;SHT30;58277;47.316;18.908;2022-11-20T02:54:25;2.61;83.17
70708;SHT30;58277;47.316;18.908;2022-11-20T02:56:48;2.57;83.27
70708;SHT30;58277;47.316;18.908;2022-11-20T02:59:10;2.44;84.15
70708;SHT30;58277;47.316;18.908;2022-11-20T03:01:33;2.52;84.16
70708;SHT30;58277;47.316;18.908;2022-11-20T03:03:57;2.55;84.09
70708;SHT30;58277;47.316;18.908;2022-11-20T03:06:20;2.62;83.78
70708;SHT30;58277;47.316;18.908;2022-11-20T03:08:42;2.65;83.86
70708;SHT30;58277;47.316;18.908;2022-11-20T03:11:06;2.57;84.23
70708;SHT30;58277;47.316;18.908;2022-11-20T03:13:29;2.58;84.26
70708;SHT30;58277;47.316;18.908;2022-11-20T03:15:52;2.57;84.23
70708;SHT30;58277;47.316;18.908;2022-11-20T03:18:15;2.54;84.31
70708;SHT30;58277;47.316;18.908;2022-11-20T03:20:38;2.58;84.53
70708;SHT30;58277;47.316;18.908;2022-11-20T03:23:01;2.69;84.03
70708;SHT30;58277;47.316;18.908;2022-11-20T03:25:23;2.89;83.57
70708;SHT30;58277;47.316;18.908;2022-11-20T03:27:46;2.91;83.34
70708;SHT30;58277;47.316;18.908;2022-11-20T03:30:09;3.10;82.93
70708;SHT30;58277;47.316;18.908;2022-11-20T03:32:32;2.99;83.23
70708;SHT30;58277;47.316;18.908;2022-11-20T03:34:54;2.96;83.48
70708;SHT30;58277;47.316;18.908;2022-11-20T03:37:17;2.91;83.86
70708;SHT30;58277;47.316;18.908;2022-11-20T03:39:39;3.05;83.51
70708;SHT30;58277;47.316;18.908;2022-11-20T03:42:02;3.09;83.34
70708;SHT30;58277;47.316;18.908;2022-11-20T03:44:25;3.33;82.62
70708;SHT30;58277;47.316;18.908;2022-11-20T03:46:48;3.55;81.78
70708;SHT30;58277;47.316;18.908;2022-11-20T03:49:10;3.50;82.41
70708;SHT30;58277;47.316;18.908;2022-11-20T03:51:35;3.50;82.49
70708;SHT30;58277;47.316;18.908;2022-11-20T03:54:02;3.60;81.92
70708;SHT30;58277;47.316;18.908;2022-11-20T03:56:27;3.50;81.57
70708;SHT30;58277;47.316;18.908;2022-11-20T03:58:50;3.43;81.68
70708;SHT30;58277;47.316;18.908;2022-11-20T04:01:21;3.40;81.37
70708;SHT30;58277;47.316;18.908;2022-11-20T04:03:45;3.37;82.23
70708;SHT30;58277;47.316;18.908;2022-11-20T04:06:11;3.31;81.88
70708;SHT30;58277;47.316;18.908;2022-11-20T04:08:34;3.38;81.87
70708;SHT30;58277;47.316;18.908;2022-11-20T04:11:11;3.44;82.32
70708;SHT30;58277;47.316;18.908;2022-11-20T04:13:34;3.47;82.44
70708;SHT30;58277;47.316;18.908;2022-11-20T04:15:57;3.43;82.47
70708;SHT30;58277;47.316;18.908;2022-11-20T04:18:20;3.37;82.09
70708;SHT30;58277;47.316;18.908;2022-11-20T04:20:42;3.41;82.32
70708;SHT30;58277;47.316;18.908;2022-11-20T04:23:05;3.46;82.29
70708;SHT30;58277;47.316;18.908;2022-11-20T04:25:28;3.53;82.26
70708;SHT30;58277;47.316;18.908;2022-11-20T04:27:50;3.36;82.30
70708;SHT30;58277;47.316;18.908;2022-11-20T04:30:13;3.30;82.86
70708;SHT30;58277;47.316;18.908;2022-11-20T04:32:36;3.34;82.36
70708;SHT30;58277;47.316;18.908;2022-11-20T04:34:59;3.31;82.28
70708;SHT30;58277;47.316;18.908;2022-11-20T04:37:22;3.30;82.29
70708;SHT30;58277;47.316;18.908;2022-11-20T04:39:44;3.23;82.84
70708;SHT30;58277;47.316;18.908;2022-11-20T04:42:08;3.20;82.38
70708;SHT30;58277;47.316;18.908;2022-11-20T04:44:50;3.34;82.29
70708;SHT30;58277;47.316;18.908;2022-11-20T04:47:12;3.34;81.88
70708;SHT30;58277;47.316;18.908;2022-11-20T04:49:35;3.34;81.03
70708;SHT30;58277;47.316;18.908;2022-11-20T04:51:58;3.33;81.47
70708;SHT30;58277;47.316;18.908;2022-11-20T04:54:20;3.41;81.21
70708;SHT30;58277;47.316;18.908;2022-11-20T04:56:43;3.43;81.27
70708;SHT30;58277;47.316;18.908;2022-11-20T04:59:06;3.44;81.64
70708;SHT30;58277;47.316;18.908;2022-11-20T05:01:29;3.40;80.95
70708;SHT30;58277;47.316;18.908;2022-11-20T05:03:52;3.41;81.13
70708;SHT30;58277;47.316;18.908;2022-11-20T05:06:18;3.57;81.53
70708;SHT30;58277;47.316;18.908;2022-11-20T05:08:41;3.65;81.69
70708;SHT30;58277;47.316;18.908;2022-11-20T05:11:06;3.67;81.23
70708;SHT30;58277;47.316;18.908;2022-11-20T05:13:30;3.67;81.32
70708;SHT30;58277;47.316;18.908;2022-11-20T05:15:52;3.64;81.71
70708;SHT30;58277;47.316;18.908;2022-11-20T05:18:15;3.55;81.40
70708;SHT30;58277;47.316;18.908;2022-11-20T05:20:37;3.58;81.82
70708;SHT30;58277;47.316;18.908;2022-11-20T05:23:00;3.46;82.73
70708;SHT30;58277;47.316;18.908;2022-11-20T05:25:22;3.38;82.84
70708;SHT30;58277;47.316;18.908;2022-11-20T05:27:46;3.40;83.59
70708;SHT30;58277;47.316;18.908;2022-11-20T05:30:09;3.50;83.58
70708;SHT30;58277;47.316;18.908;2022-11-20T05:32:31;3.43;83.57
70708;SHT30;58277;47.316;18.908;2022-11-20T05:34:54;3.28;84.53
70708;SHT30;58277;47.316;18.908;2022-11-20T05:37:18;3.33;83.75
70708;SHT30;58277;47.316;18.908;2022-11-20T05:39:40;3.38;83.77
70708;SHT30;58277;47.316;18.908;2022-11-20T05:42:03;3.47;83.12
70708;SHT30;58277;47.316;18.908;2022-11-20T05:44:44;3.53;83.34
70708;SHT30;58277;47.316;18.908;2022-11-20T05:47:07;3.41;83.61
70708;SHT30;58277;47.316;18.908;2022-11-20T05:49:30;3.46;83.64
70708;SHT30;58277;47.316;18.908;2022-11-20T05:51:52;3.43;84.04
70708;SHT30;58277;47.316;18.908;2022-11-20T05:54:15;3.50;83.58
70708;SHT30;58277;47.316;18.908;2022-11-20T05:56:37;3.38;83.27
70708;SHT30;58277;47.316;18.908;2022-11-20T05:59:00;3.44;83.94
70708;SHT30;58277;47.316;18.908;2022-11-20T06:01:24;3.38;83.56
70708;SHT30;58277;47.316;18.908;2022-11-20T06:03:48;3.38;83.34
70708;SHT30;58277;47.316;18.908;2022-11-20T06:06:14;3.46;83.48
70708;SHT30;58277;47.316;18.908;2022-11-20T06:08:37;3.44;83.42
70708;SHT30;58277;47.316;18.908;2022-11-20T06:11:08;3.47;83.56
70708;SHT30;58277;47.316;18.908;2022-11-20T06:13:31;3.43;83.11
70708;SHT30;58277;47.316;18.908;2022-11-20T06:15:53;3.46;83.60
70708;SHT30;58277;47.316;18.908;2022-11-20T06:18:17;3.46;83.43
70708;SHT30;58277;47.316;18.908;2022-11-20T06:20:40;3.48;82.98
70708;SHT30;58277;47.316;18.908;2022-11-20T06:23:03;3.43;83.27
70708;SHT30;58277;47.316;18.908;2022-11-20T06:25:26;3.38;83.38
70708;SHT30;58277;47.316;18.908;2022-11-20T06:27:48;3.30;84.42
70708;SHT30;58277;47.316;18.908;2022-11-20T06:30:12;3.30;83.43
70708;SHT30;58277;47.316;18.908;2022-11-20T06:32:34;3.36;83.98
70708;SHT30;58277;47.316;18.908;2022-11-20T06:34:57;3.47;83.53
70708;SHT30;58277;47.316;18.908;2022-11-20T06:37:20;3.47;83.25
70708;SHT30;58277;47.316;18.908;2022-11-20T06:39:42;3.60;82.74
70708;SHT30;58277;47.316;18.908;2022-11-20T06:42:05;3.74;81.70
70708;SHT30;58277;47.316;18.908;2022-11-20T06:44:28;3.78;81.77
70708;SHT30;58277;47.316;18.908;2022-11-20T06:46:50;3.79;81.12
70708;SHT30;58277;47.316;18.908;2022-11-20T06:49:13;3.89;80.89
70708;SHT30;58277;47.316;18.908;2022-11-20T06:51:35;3.96;80.49
70708;SHT30;58277;47.316;18.908;2022-11-20T06:53:58;4.05;80.00
70708;SHT30;58277;47.316;18.908;2022-11-20T06:56:21;4.14;80.46
70708;SHT30;58277;47.316;18.908;2022-11-20T06:58:44;4.09;79.95
70708;SHT30;58277;47.316;18.908;2022-11-20T07:01:12;4.02;80.38
70708;SHT30;58277;47.316;18.908;2022-11-20T07:03:35;4.03;80.34
70708;SHT30;58277;47.316;18.908;2022-11-20T07:05:58;4.03;79.94
70708;SHT30;58277;47.316;18.908;2022-11-20T07:08:23;3.99;80.34
70708;SHT30;58277;47.316;18.908;2022-11-20T07:10:45;3.99;80.50
70708;SHT30;58277;47.316;18.908;2022-11-20T07:13:08;4.07;80.61
70708;SHT30;58277;47.316;18.908;2022-11-20T07:15:30;4.10;80.51
70708;SHT30;58277;47.316;18.908;2022-11-20T07:17:53;4.07;80.34
70708;SHT30;58277;47.316;18.908;2022-11-20T07:20:16;4.26;80.36
70708;SHT30;58277;47.316;18.908;2022-11-20T07:22:39;4.30;80.64
70708;SHT30;58277;47.316;18.908;2022-11-20T07:25:02;4.37;80.23
70708;SHT30;58277;47.316;18.908;2022-11-20T07:27:24;4.50;80.31
70708;SHT30;58277;47.316;18.908;2022-11-20T07:29:47;4.37;80.20
70708;SHT30;58277;47.316;18.908;2022-11-20T07:32:10;4.43;80.48
70708;SHT30;58277;47.316;18.908;2022-11-20T07:34:32;4.44;80.73
70708;SHT30;58277;47.316;18.908;2022-11-20T07:36:55;4.39;81.54
70708;SHT30;58277;47.316;18.908;2022-11-20T07:39:18;4.39;80.89
70708;SHT30;58277;47.316;18.908;2022-11-20T07:41:41;4.36;81.37
70708;SHT30;58277;47.316;18.908;2022-11-20T07:44:04;4.51;80.84
70708;SHT30;58277;47.316;18.908;2022-11-20T07:46:26;4.47;81.96
70708;SHT30;58277;47.316;18.908;2022-11-20T07:48:49;4.46;81.34
70708;SHT30;58277;47.316;18.908;2022-11-20T07:51:12;4.53;81.88
70708;SHT30;58277;47.316;18.908;2022-11-20T07:53:35;4.65;81.12
70708;SHT30;58277;47.316;18.908;2022-11-20T07:56:02;4.67;81.03
70708;SHT30;58277;47.316;18.908;2022-11-20T07:58:26;4.70;80.66
70708;SHT30;58277;47.316;18.908;2022-11-20T08:00:50;4.77;80.24
70708;SHT30;58277;47.316;18.908;2022-11-20T08:03:13;4.93;80.45
70708;SHT30;58277;47.316;18.908;2022-11-20T08:05:40;5.08;80.87
70708;SHT30;58277;47.316;18.908;2022-11-20T08:08:03;5.12;79.57
70708;SHT30;58277;47.316;18.908;2022-11-20T08:10:25;5.22;79.59
70708;SHT30;58277;47.316;18.908;2022-11-20T08:12:52;5.32;79.18
70708;SHT30;58277;47.316;18.908;2022-11-20T08:15:34;5.39;78.92
70708;SHT30;58277;47.316;18.908;2022-11-20T08:18:10;5.44;78.48
70708;SHT30;58277;47.316;18.908;2022-11-20T08:20:53;5.53;78.44
70708;SHT30;58277;47.316;18.908;2022-11-20T08:23:16;5.46;77.42
70708;SHT30;58277;47.316;18.908;2022-11-20T08:25:39;5.37;77.68
70708;SHT30;58277;47.316;18.908;2022-11-20T08:28:06;5.78;77.39
70708;SHT30;58277;47.316;18.908;2022-11-20T08:30:42;5.75;76.74
70708;SHT30;58277;47.316;18.908;2022-11-20T08:33:06;6.08;75.96
70708;SHT30;58277;47.316;18.908;2022-11-20T08:35:37;6.16;76.72
70708;SHT30;58277;47.316;18.908;2022-11-20T08:38:01;6.29;74.80
70708;SHT30;58277;47.316;18.908;2022-11-20T08:40:23;6.40;74.87
70708;SHT30;58277;47.316;18.908;2022-11-20T08:42:47;6.63;76.06
70708;SHT30;58277;47.316;18.908;2022-11-20T08:45:10;6.80;75.63
70708;SHT30;58277;47.316;18.908;2022-11-20T08:47:33;6.84;75.05
70708;SHT30;58277;47.316;18.908;2022-11-20T08:49:55;6.92;75.23
70708;SHT30;58277;47.316;18.908;2022-11-20T08:52:18;6.94;75.19
70708;SHT30;58277;47.316;18.908;2022-11-20T08:54:41;6.85;75.78
70708;SHT30;58277;47.316;18.908;2022-11-20T08:57:04;6.92;75.68
70708;SHT30;58277;47.316;18.908;2022-11-20T08:59:26;6.90;75.81
70708;SHT30;58277;47.316;18.908;2022-11-20T09:02:09;6.60;76.77
70708;SHT30;58277;47.316;18.908;2022-11-20T09:04:32;6.67;76.71
70708;SHT30;58277;47.316;18.908;2022-11-20T09:06:59;6.70;76.11
70708;SHT30;58277;47.316;18.908;2022-11-20T09:09:22;6.51;76.27
70708;SHT30;58277;47.316;18.908;2022-11-20T09:11:46;6.46;77.29
70708;SHT30;58277;47.316;18.908;2022-11-20T09:14:08;6.43;75.51
70708;SHT30;58277;47.316;18.908;2022-11-20T09:16:31;6.54;76.52
70708;SHT30;58277;47.316;18.908;2022-11-20T09:18:54;6.57;76.21
70708;SHT30;58277;47.316;18.908;2022-11-20T09:21:36;6.44;76.57
70708;SHT30;58277;47.316;18.908;2022-11-20T09:23:59;6.42;75.59
70708;SHT30;58277;47.316;18.908;2022-11-20T09:26:22;6.42;75.67
70708;SHT30;58277;47.316;18.908;2022-11-20T09:28:45;6.37;76.24
70708;SHT30;58277;47.316;18.908;2022-11-20T09:31:11;6.19;77.29
70708;SHT30;58277;47.316;18.908;2022-11-20T09:33:38;6.19;77.74
70708;SHT30;58277;47.316;18.908;2022-11-20T09:36:00;6.30;76.95
70708;SHT30;58277;47.316;18.908;2022-11-20T09:38:23;6.29;76.65
70708;SHT30;58277;47.316;18.908;2022-11-20T09:40:58;6.16;77.44
70708;SHT30;58277;47.316;18.908;2022-11-20T09:43:32;6.28;77.65
70708;SHT30;58277;47.316;18.908;2022-11-20T09:46:17;6.32;77.83
70708;SHT30;58277;47.316;18.908;2022-11-20T09:51:35;6.53;78.27
70708;SHT30;58277;47.316;18.908;2022-11-20T09:54:20;6.56;79.20
70708;SHT30;58277;47.316;18.908;2022-11-20T09:56:50;6.63;78.36
70708;SHT30;58277;47.316;18.908;2022-11-20T09:59:42;6.53;77.94
70708;SHT30;58277;47.316;18.908;2022-11-20T10:04:39;6.80;79.18
70708;SHT30;58277;47.316;18.908;2022-11-20T10:07:13;6.91;79.11
70708;SHT30;58277;47.316;18.908;2022-11-20T10:09:55;6.92;77.44
70708;SHT30;58277;47.316;18.908;2022-11-20T10:12:40;6.91;77.56
70708;SHT30;58277;47.316;18.908;2022-11-20T10:15:36;6.88;78.58
70708;SHT30;58277;47.316;18.908;2022-11-20T10:18:12;6.91;77.40
70708;SHT30;58277;47.316;18.908;2022-11-20T10:26:51;7.09;77.11
70708;SHT30;58277;47.316;18.908;2022-11-20T10:29:19;7.09;76.66
70708;SHT30;58277;47.316;18.908;2022-11-20T10:31:51;7.04;76.69
70708;SHT30;58277;47.316;18.908;2022-11-20T10:36:59;7.14;77.07
70708;SHT30;58277;47.316;18.908;2022-11-20T10:41:54;7.12;75.80
70708;SHT30;58277;47.316;18.908;2022-11-20T10:44:20;7.19;75.91
70708;SHT30;58277;47.316;18.908;2022-11-20T10:47:03;7.14;77.04
70708;SHT30;58277;47.316;18.908;2022-11-20T10:49:27;7.20;75.30
70708;SHT30;58277;47.316;18.908;2022-11-20T10:52:02;7.11;75.18
70708;SHT30;58277;47.316;18.908;2022-11-20T10:54:43;7.02;75.97
70708;SHT30;58277;47.316;18.908;2022-11-20T11:00:09;7.08;74.78
70708;SHT30;58277;47.316;18.908;2022-11-20T11:02:48;7.18;75.77
70708;SHT30;58277;47.316;18.908;2022-11-20T11:05:40;7.32;75.62
70708;SHT30;58277;47.316;18.908;2022-11-20T11:08:15;7.56;75.34
70708;SHT30;58277;47.316;18.908;2022-11-20T11:10:47;7.52;75.20
70708;SHT30;58277;47.316;18.908;2022-11-20T11:13:24;7.81;75.13
70708;SHT30;58277;47.316;18.908;2022-11-20T11:15:47;7.99;74.91
70708;SHT30;58277;47.316;18.908;2022-11-20T11:18:11;7.67;74.74
70708;SHT30;58277;47.316;18.908;2022-11-20T11:20:33;7.83;75.32
70708;SHT30;58277;47.316;18.908;2022-11-20T11:22:58;7.83;74.81
70708;SHT30;58277;47.316;18.908;2022-11-20T11:25:36;7.84;75.09
70708;SHT30;58277;47.316;18.908;2022-11-20T11:28:05;7.76;75.48
70708;SHT30;58277;47.316;18.908;2022-11-20T11:30:43;7.80;74.96
70708;SHT30;58277;47.316;18.908;2022-11-20T11:33:10;7.80;74.73
70708;SHT30;58277;47.316;18.908;2022-11-20T11:35:33;7.73;75.41
70708;SHT30;58277;47.316;18.908;2022-11-20T11:38:04;7.67;76.23
70708;SHT30;58277;47.316;18.908;2022-11-20T11:40:32;7.73;75.30
70708;SHT30;58277;47.316;18.908;2022-11-20T11:43:01;7.78;75.31
70708;SHT30;58277;47.316;18.908;2022-11-20T11:45:24;7.90;75.70
70708;SHT30;58277;47.316;18.908;2022-11-20T11:47:48;7.98;75.53
70708;SHT30;58277;47.316;18.908;2022-11-20T11:50:15;7.90;76.14
70708;SHT30;58277;47.316;18.908;2022-11-20T11:53:17;7.97;75.16
70708;SHT30;58277;47.316;18.908;2022-11-20T11:58:51;8.20;75.15
70708;SHT30;58277;47.316;18.908;2022-11-20T12:04:33;8.26;75.05
70708;SHT30;58277;47.316;18.908;2022-11-20T12:07:02;8.29;75.50
70708;SHT30;58277;47.316;18.908;2022-11-20T12:09:52;8.28;74.54
70708;SHT30;58277;47.316;18.908;2022-11-20T12:12:20;8.26;74.45
70708;SHT30;58277;47.316;18.908;2022-11-20T12:14:48;8.06;75.17
70708;SHT30;58277;47.316;18.908;2022-11-20T12:17:13;8.08;76.49
70708;SHT30;58277;47.316;18.908;2022-11-20T12:19:36;8.09;76.01
70708;SHT30;58277;47.316;18.908;2022-11-20T12:22:07;8.09;75.30
70708;SHT30;58277;47.316;18.908;2022-11-20T12:25:47;7.81;75.49
70708;SHT30;58277;47.316;18.908;2022-11-20T12:28:14;7.95;75.77
70708;SHT30;58277;47.316;18.908;2022-11-20T12:33:53;7.90;76.41
70708;SHT30;58277;47.316;18.908;2022-11-20T12:39:49;7.97;76.45
70708;SHT30;58277;47.316;18.908;2022-11-20T12:54:05;8.22;75.05
70708;SHT30;58277;47.316;18.908;2022-11-20T12:56:55;8.11;75.30
70708;SHT30;58277;47.316;18.908;2022-11-20T13:05:09;8.46;74.66
70708;SHT30;58277;47.316;18.908;2022-11-20T13:07:38;8.46;74.21
70708;SHT30;58277;47.316;18.908;2022-11-20T13:10:01;8.56;74.22
70708;SHT30;58277;47.316;18.908;2022-11-20T13:12:33;8.36;75.02
70708;SHT30;58277;47.316;18.908;2022-11-20T13:17:41;8.29;74.32
70708;SHT30;58277;47.316;18.908;2022-11-20T13:20:15;8.24;74.46
70708;SHT30;58277;47.316;18.908;2022-11-20T13:22:45;8.28;75.15
70708;SHT30;58277;47.316;18.908;2022-11-20T13:25:33;8.18;76.07
70708;SHT30;58277;47.316;18.908;2022-11-20T13:27:55;8.01;76.72
70708;SHT30;58277;47.316;18.908;2022-11-20T13:30:24;7.71;75.99
70708;SHT30;58277;47.316;18.908;2022-11-20T13:32:52;7.80;76.82
70708;SHT30;58277;47.316;18.908;2022-11-20T13:35:28;7.80;76.87
70708;SHT30;58277;47.316;18.908;2022-11-20T13:38:12;7.71;76.49
70708;SHT30;58277;47.316;18.908;2022-11-20T13:40:51;7.71;76.91
70708;SHT30;58277;47.316;18.908;2022-11-20T13:43:37;7.73;77.12
70708;SHT30;58277;47.316;18.908;2022-11-20T13:46:07;7.56;77.74
70708;SHT30;58277;47.316;18.908;2022-11-20T13:48:48;7.49;77.55
70708;SHT30;58277;47.316;18.908;2022-11-20T13:54:28;7.35;77.60
70708;SHT30;58277;47.316;18.908;2022-11-20T14:02:11;7.42;77.69
70708;SHT30;58277;47.316;18.908;2022-11-20T14:04:38;7.40;78.13
70708;SHT30;58277;47.316;18.908;2022-11-20T14:07:08;7.32;77.43
70708;SHT30;58277;47.316;18.908;2022-11-20T14:09:33;7.26;78.00
70708;SHT30;58277;47.316;18.908;2022-11-20T14:11:56;7.23;78.55
70708;SHT30;58277;47.316;18.908;2022-11-20T14:14:22;7.16;78.57
70708;SHT30;58277;47.316;18.908;2022-11-20T14:16:47;7.08;78.38
70708;SHT30;58277;47.316;18.908;2022-11-20T14:21:54;6.91;78.49
70708;SHT30;58277;47.316;18.908;2022-11-20T14:24:22;7.01;78.61
70708;SHT30;58277;47.316;18.908;2022-11-20T14:26:46;6.99;78.58
70708;SHT30;58277;47.316;18.908;2022-11-20T14:29:29;7.07;78.61
70708;SHT30;58277;47.316;18.908;2022-11-20T14:31:54;7.07;79.02
70708;SHT30;58277;47.316;18.908;2022-11-20T14:34:23;7.07;78.75
70708;SHT30;58277;47.316;18.908;2022-11-20T14:36:47;7.02;79.05
70708;SHT30;58277;47.316;18.908;2022-11-20T14:39:12;7.01;79.11
70708;SHT30;58277;47.316;18.908;2022-11-20T14:41:50;7.08;79.10
70708;SHT30;58277;47.316;18.908;2022-11-20T14:44:14;7.01;79.62
70708;SHT30;58277;47.316;18.908;2022-11-20T14:46:37;6.92;79.24
70708;SHT30;58277;47.316;18.908;2022-11-20T14:49:01;6.88;79.22
70708;SHT30;58277;47.316;18.908;2022-11-20T14:51:34;6.90;79.51
70708;SHT30;58277;47.316;18.908;2022-11-20T14:56:38;6.70;80.03
70708;SHT30;58277;47.316;18.908;2022-11-20T14:59:02;6.64;80.57
70708;SHT30;58277;47.316;18.908;2022-11-20T15:01:27;6.60;80.47
70708;SHT30;58277;47.316;18.908;2022-11-20T15:03:59;6.49;80.79
70708;SHT30;58277;47.316;18.908;2022-11-20T15:06:26;6.39;80.94
70708;SHT30;58277;47.316;18.908;2022-11-20T15:08:52;6.25;81.50
70708;SHT30;58277;47.316;18.908;2022-11-20T15:11:18;6.18;81.17
70708;SHT30;58277;47.316;18.908;2022-11-20T15:13:41;6.12;81.67
70708;SHT30;58277;47.316;18.908;2022-11-20T15:16:18;6.06;81.67
70708;SHT30;58277;47.316;18.908;2022-11-20T15:18:42;6.05;81.76
70708;SHT30;58277;47.316;18.908;2022-11-20T15:21:11;5.87;82.24
70708;SHT30;58277;47.316;18.908;2022-11-20T15:23:34;5.81;82.46
70708;SHT30;58277;47.316;18.908;2022-11-20T15:25:57;5.73;82.82
70708;SHT30;58277;47.316;18.908;2022-11-20T15:28:33;5.73;82.64
70708;SHT30;58277;47.316;18.908;2022-11-20T15:30:56;5.67;82.62
70708;SHT30;58277;47.316;18.908;2022-11-20T15:33:19;5.53;83.10
70708;SHT30;58277;47.316;18.908;2022-11-20T15:35:43;5.57;83.17
70708;SHT30;58277;47.316;18.908;2022-11-20T15:38:06;5.48;83.25
70708;SHT30;58277;47.316;18.908;2022-11-20T15:40:29;5.43;83.19
70708;SHT30;58277;47.316;18.908;2022-11-20T15:42:52;5.37;83.49
70708;SHT30;58277;47.316;18.908;2022-11-20T15:45:45;5.35;83.47
70708;SHT30;58277;47.316;18.908;2022-11-20T15:48:12;5.09;83.99
70708;SHT30;58277;47.316;18.908;2022-11-20T15:50:39;5.18;83.78
70708;SHT30;58277;47.316;18.908;2022-11-20T15:53:04;5.08;84.48
70708;SHT30;58277;47.316;18.908;2022-11-20T15:55:26;5.05;84.57
70708;SHT30;58277;47.316;18.908;2022-11-20T15:57:49;4.98;84.54
70708;SHT30;58277;47.316;18.908;2022-11-20T16:00:12;4.96;84.55
70708;SHT30;58277;47.316;18.908;2022-11-20T16:02:39;4.98;84.52
70708;SHT30;58277;47.316;18.908;2022-11-20T16:05:02;4.98;84.26
70708;SHT30;58277;47.316;18.908;2022-11-20T16:07:25;4.82;84.96
70708;SHT30;58277;47.316;18.908;2022-11-20T16:09:48;4.87;85.00
70708;SHT30;58277;47.316;18.908;2022-11-20T16:12:11;4.87;85.05
70708;SHT30;58277;47.316;18.908;2022-11-20T16:14:57;4.78;85.57
70708;SHT30;58277;47.316;18.908;2022-11-20T16:17:38;4.85;85.23
70708;SHT30;58277;47.316;18.908;2022-11-20T16:20:12;4.98;84.57
70708;SHT30;58277;47.316;18.908;2022-11-20T16:22:35;4.91;85.08
70708;SHT30;58277;47.316;18.908;2022-11-20T16:24:58;4.92;84.63
70708;SHT30;58277;47.316;18.908;2022-11-20T16:27:21;4.92;84.42
70708;SHT30;58277;47.316;18.908;2022-11-20T16:29:44;4.99;84.33
70708;SHT30;58277;47.316;18.908;2022-11-20T16:32:07;4.98;84.37
70708;SHT30;58277;47.316;18.908;2022-11-20T16:34:31;4.78;85.02
70708;SHT30;58277;47.316;18.908;2022-11-20T16:36:54;4.84;85.31